sensor_id;sensor_type;location;lat;lon;timestamp;pressure;altitude;pressure_sealevel;temperature;humidity
77171;BME280;66144;50.020;14.422;2023-05-07T00:01:48;99117.03;;;13.32;68.29
77171;BME280;66144;50.020;14.422;2023-05-07T00:04:13;99118.84;;;13.32;68.92
77171;BME280;66144;50.020;14.422;2023-05-07T00:06:39;99111.53;;;13.34;68.58
77171;BME280;66144;50.020;14.422;2023-05-07T00:09:05;99117.06;;;13.37;67.80
77171;BME280;66144;50.020;14.422;2023-05-07T00:11:30;99115.97;;;13.33;68.08
77171;BME280;66144;50.020;14.422;2023-05-07T00:13:56;99116.22;;;13.32;67.88
77171;BME280;66144;50.020;14.422;2023-05-07T00:16:21;99113.06;;;13.30;67.76
77171;BME280;66144;50.020;14.422;2023-05-07T00:18:46;99110.44;;;13.30;68.03
77171;BME280;66144;50.020;14.422;2023-05-07T00:21:12;99116.72;;;13.29;68.06
77171;BME280;66144;50.020;14.422;2023-05-07T00:23:37;99115.19;;;13.33;68.62
77171;BME280;66144;50.020;14.422;2023-05-07T00:26:03;99112.81;;;13.31;69.23
77171;BME280;66144;50.020;14.422;2023-05-07T00:28:28;99116.50;;;13.35;68.13
77171;BME280;66144;50.020;14.422;2023-05-07T00:30:54;99111.28;;;13.35;68.62
77171;BME280;66144;50.020;14.422;2023-05-07T00:33:20;99103.16;;;13.37;68.16
77171;BME280;66144;50.020;14.422;2023-05-07T00:35:46;99113.63;;;13.37;67.68
77171;BME280;66144;50.020;14.422;2023-05-07T00:38:11;99112.31;;;13.34;67.97
77171;BME280;66144;50.020;14.422;2023-05-07T00:40:36;99112.56;;;13.33;68.09
77171;BME280;66144;50.020;14.422;2023-05-07T00:43:02;99112.56;;;13.33;68.11
77171;BME280;66144;50.020;14.422;2023-05-07T00:45:27;99112.34;;;13.39;68.41
77171;BME280;66144;50.020;14.422;2023-05-07T00:47:59;99119.69;;;13.37;68.68
77171;BME280;66144;50.020;14.422;2023-05-07T00:50:26;99124.13;;;13.37;68.10
77171;BME280;66144;50.020;14.422;2023-05-07T00:52:52;99109.41;;;13.31;68.21
77171;BME280;66144;50.020;14.422;2023-05-07T00:55:18;99121.00;;;13.40;68.26
77171;BME280;66144;50.020;14.422;2023-05-07T00:57:43;99112.59;;;13.38;67.63
77171;BME280;66144;50.020;14.422;2023-05-07T01:00:10;99115.25;;;13.43;67.18
77171;BME280;66144;50.020;14.422;2023-05-07T01:02:38;99126.25;;;13.40;68.04
77171;BME280;66144;50.020;14.422;2023-05-07T01:05:05;99127.84;;;13.41;68.20
77171;BME280;66144;50.020;14.422;2023-05-07T01:07:32;99130.16;;;13.37;68.07
77171;BME280;66144;50.020;14.422;2023-05-07T01:09:58;99124.66;;;13.39;67.75
77171;BME280;66144;50.020;14.422;2023-05-07T01:12:24;99130.19;;;13.42;68.17
77171;BME280;66144;50.020;14.422;2023-05-07T01:14:50;99127.03;;;13.40;68.60
77171;BME280;66144;50.020;14.422;2023-05-07T01:17:16;99124.66;;;13.39;67.93
77171;BME280;66144;50.020;14.422;2023-05-07T01:19:42;99130.50;;;13.46;68.29
77171;BME280;66144;50.020;14.422;2023-05-07T01:22:09;99125.25;;;13.46;68.50
77171;BME280;66144;50.020;14.422;2023-05-07T01:24:36;99130.50;;;13.51;67.43
77171;BME280;66144;50.020;14.422;2023-05-07T01:27:02;99128.91;;;13.50;68.39
77171;BME280;66144;50.020;14.422;2023-05-07T01:29:28;99125.78;;;13.53;68.18
77171;BME280;66144;50.020;14.422;2023-05-07T01:31:55;99123.69;;;13.55;67.74
77171;BME280;66144;50.020;14.422;2023-05-07T01:34:22;99133.66;;;13.53;68.77
77171;BME280;66144;50.020;14.422;2023-05-07T01:36:48;99131.28;;;13.52;67.63
77171;BME280;66144;50.020;14.422;2023-05-07T01:39:14;99129.19;;;13.54;67.20
77171;BME280;66144;50.020;14.422;2023-05-07T01:41:41;99127.34;;;13.54;67.28
77171;BME280;66144;50.020;14.422;2023-05-07T01:44:08;99128.41;;;13.53;67.38
77171;BME280;66144;50.020;14.422;2023-05-07T01:46:35;99134.16;;;13.45;68.01
77171;BME280;66144;50.020;14.422;2023-05-07T01:49:00;99131.25;;;13.41;68.63
77171;BME280;66144;50.020;14.422;2023-05-07T01:51:26;99131.00;;;13.48;68.45
77171;BME280;66144;50.020;14.422;2023-05-07T01:53:52;99129.91;;;13.39;68.99
77171;BME280;66144;50.020;14.422;2023-05-07T01:56:18;99129.91;;;13.39;68.67
77171;BME280;66144;50.020;14.422;2023-05-07T01:58:45;99133.34;;;13.39;68.54
77171;BME280;66144;50.020;14.422;2023-05-07T02:01:12;99135.69;;;13.41;68.84
77171;BME280;66144;50.020;14.422;2023-05-07T02:03:37;99137.28;;;13.42;69.42
77171;BME280;66144;50.020;14.422;2023-05-07T02:06:03;99138.28;;;13.36;68.71
77171;BME280;66144;50.020;14.422;2023-05-07T02:08:28;99139.63;;;13.38;68.78
77171;BME280;66144;50.020;14.422;2023-05-07T02:10:53;99128.88;;;13.40;68.97
77171;BME280;66144;50.020;14.422;2023-05-07T02:13:19;99138.63;;;13.44;68.27
77171;BME280;66144;50.020;14.422;2023-05-07T02:15:45;99137.28;;;13.47;69.14
77171;BME280;66144;50.020;14.422;2023-05-07T02:18:15;99134.16;;;13.45;67.65
77171;BME280;66144;50.020;14.422;2023-05-07T02:20:41;99132.03;;;13.42;67.82
77171;BME280;66144;50.020;14.422;2023-05-07T02:23:06;99132.03;;;13.42;67.73
77171;BME280;66144;50.020;14.422;2023-05-07T02:25:31;99139.34;;;13.35;67.77
77171;BME280;66144;50.020;14.422;2023-05-07T02:27:57;99139.38;;;13.40;67.66
77171;BME280;66144;50.020;14.422;2023-05-07T02:30:22;99139.34;;;13.35;67.47
77171;BME280;66144;50.020;14.422;2023-05-07T02:32:48;99135.69;;;13.41;66.08
77171;BME280;66144;50.020;14.422;2023-05-07T02:35:13;99139.38;;;13.40;66.53
77171;BME280;66144;50.020;14.422;2023-05-07T02:37:38;99140.44;;;13.44;65.86
77171;BME280;66144;50.020;14.422;2023-05-07T02:40:04;99136.00;;;13.44;65.93
77171;BME280;66144;50.020;14.422;2023-05-07T02:42:30;99134.41;;;13.43;65.83
77171;BME280;66144;50.020;14.422;2023-05-07T02:44:55;99140.16;;;13.40;66.33
77171;BME280;66144;50.020;14.422;2023-05-07T02:47:21;99124.69;;;13.44;65.45
77171;BME280;66144;50.020;14.422;2023-05-07T02:49:46;99129.94;;;13.44;65.10
77171;BME280;66144;50.020;14.422;2023-05-07T02:52:11;99134.66;;;13.47;65.13
77171;BME280;66144;50.020;14.422;2023-05-07T02:54:37;99131.53;;;13.45;66.08
77171;BME280;66144;50.020;14.422;2023-05-07T02:57:02;99140.91;;;13.36;64.53
77171;BME280;66144;50.020;14.422;2023-05-07T02:59:28;99142.22;;;13.33;63.90
77171;BME280;66144;50.020;14.422;2023-05-07T03:01:53;99145.63;;;13.34;64.03
77171;BME280;66144;50.020;14.422;2023-05-07T03:04:19;99144.09;;;13.38;64.67
77171;BME280;66144;50.020;14.422;2023-05-07T03:06:44;99142.00;;;13.40;64.52
77171;BME280;66144;50.020;14.422;2023-05-07T03:09:09;99139.63;;;13.38;64.21
77171;BME280;66144;50.020;14.422;2023-05-07T03:11:36;99138.31;;;13.41;65.10
77171;BME280;66144;50.020;14.422;2023-05-07T03:14:01;99134.91;;;13.40;64.54
77171;BME280;66144;50.020;14.422;2023-05-07T03:16:27;99146.69;;;13.38;64.61
77171;BME280;66144;50.020;14.422;2023-05-07T03:18:53;99146.13;;;13.31;63.54
77171;BME280;66144;50.020;14.422;2023-05-07T03:21:18;99139.59;;;13.33;64.59
77171;BME280;66144;50.020;14.422;2023-05-07T03:23:44;99143.22;;;13.22;64.50
77171;BME280;66144;50.020;14.422;2023-05-07T03:26:09;99136.34;;;13.16;64.38
77171;BME280;66144;50.020;14.422;2023-05-07T03:28:34;99142.63;;;13.15;65.00
77171;BME280;66144;50.020;14.422;2023-05-07T03:31:00;99142.41;;;13.22;64.32
77171;BME280;66144;50.020;14.422;2023-05-07T03:33:25;99141.34;;;13.18;63.86
77171;BME280;66144;50.020;14.422;2023-05-07T03:35:52;99140.84;;;13.21;64.84
77171;BME280;66144;50.020;14.422;2023-05-07T03:38:20;99137.97;;;13.22;64.07
77171;BME280;66144;50.020;14.422;2023-05-07T03:40:45;99146.09;;;13.21;64.41
77171;BME280;66144;50.020;14.422;2023-05-07T03:43:10;99142.72;;;13.25;64.34
77171;BME280;66144;50.020;14.422;2023-05-07T03:45:36;99147.13;;;13.20;64.04
77171;BME280;66144;50.020;14.422;2023-05-07T03:48:01;99143.22;;;13.22;63.85
77171;BME280;66144;50.020;14.422;2023-05-07T03:50:27;99142.97;;;13.24;64.34
77171;BME280;66144;50.020;14.422;2023-05-07T03:52:52;99145.59;;;13.24;63.95
77171;BME280;66144;50.020;14.422;2023-05-07T03:55:17;99141.91;;;13.25;64.44
77171;BME280;66144;50.020;14.422;2023-05-07T03:57:43;99138.75;;;13.23;63.09
77171;BME280;66144;50.020;14.422;2023-05-07T04:00:08;99144.78;;;13.23;63.71
77171;BME280;66144;50.020;14.422;2023-05-07T04:02:34;99146.09;;;13.21;63.07
77171;BME280;66144;50.020;14.422;2023-05-07T04:04:59;99136.03;;;13.12;62.78
77171;BME280;66144;50.020;14.422;2023-05-07T04:07:25;99128.25;;;13.23;62.72
77171;BME280;66144;50.020;14.422;2023-05-07T04:09:50;99134.84;;;13.25;62.63
77171;BME280;66144;50.020;14.422;2023-05-07T04:12:16;99135.38;;;13.27;62.59
77171;BME280;66144;50.020;14.422;2023-05-07T04:14:41;99144.28;;;13.31;62.66
77171;BME280;66144;50.020;14.422;2023-05-07T04:17:07;99150.13;;;13.01;63.46
77171;BME280;66144;50.020;14.422;2023-05-07T04:19:34;99153.66;;;13.17;63.84
77171;BME280;66144;50.020;14.422;2023-05-07T04:22:00;99158.69;;;13.24;63.72
77171;BME280;66144;50.020;14.422;2023-05-07T04:24:25;99161.84;;;13.26;63.88
77171;BME280;66144;50.020;14.422;2023-05-07T04:26:51;99161.56;;;13.22;63.97
77171;BME280;66144;50.020;14.422;2023-05-07T04:29:17;99166.78;;;13.17;64.56
77171;BME280;66144;50.020;14.422;2023-05-07T04:31:43;99167.75;;;13.11;65.33
77171;BME280;66144;50.020;14.422;2023-05-07T04:34:10;99167.75;;;13.11;64.93
77171;BME280;66144;50.020;14.422;2023-05-07T04:36:37;99169.78;;;12.99;65.12
77171;BME280;66144;50.020;14.422;2023-05-07T04:39:03;99173.72;;;13.01;65.73
77171;BME280;66144;50.020;14.422;2023-05-07T04:41:29;99177.59;;;12.94;65.48
77171;BME280;66144;50.020;14.422;2023-05-07T04:43:54;99179.34;;;12.83;65.75
77171;BME280;66144;50.020;14.422;2023-05-07T04:46:19;99181.53;;;12.96;64.97
77171;BME280;66144;50.020;14.422;2023-05-07T04:48:45;99183.44;;;13.01;65.64
77171;BME280;66144;50.020;14.422;2023-05-07T04:51:10;99179.53;;;13.08;64.98
77171;BME280;66144;50.020;14.422;2023-05-07T04:53:36;99173.63;;;12.86;64.75
77171;BME280;66144;50.020;14.422;2023-05-07T04:56:02;99176.00;;;12.93;65.03
77171;BME280;66144;50.020;14.422;2023-05-07T04:58:27;99180.50;;;12.97;64.79
77171;BME280;66144;50.020;14.422;2023-05-07T05:00:57;99182.63;;;13.00;65.04
77171;BME280;66144;50.020;14.422;2023-05-07T05:03:22;99187.34;;;12.98;64.65
77171;BME280;66144;50.020;14.422;2023-05-07T05:05:49;99185.16;;;12.85;65.61
77171;BME280;66144;50.020;14.422;2023-05-07T05:08:14;99182.63;;;13.00;65.11
77171;BME280;66144;50.020;14.422;2023-05-07T05:10:40;99186.88;;;13.06;64.75
77171;BME280;66144;50.020;14.422;2023-05-07T05:13:06;99202.09;;;13.09;64.28
77171;BME280;66144;50.020;14.422;2023-05-07T05:15:33;99201.13;;;13.16;63.73
77171;BME280;66144;50.020;14.422;2023-05-07T05:17:58;99195.75;;;13.00;62.83
77171;BME280;66144;50.020;14.422;2023-05-07T05:20:23;99201.34;;;13.14;63.36
77171;BME280;66144;50.020;14.422;2023-05-07T05:22:49;99203.25;;;13.19;63.43
77171;BME280;66144;50.020;14.422;2023-05-07T05:25:14;99208.53;;;13.24;62.51
77171;BME280;66144;50.020;14.422;2023-05-07T05:27:40;99209.59;;;13.28;62.33
77171;BME280;66144;50.020;14.422;2023-05-07T05:30:06;99212.50;;;13.31;62.59
77171;BME280;66144;50.020;14.422;2023-05-07T05:32:31;99212.00;;;13.34;62.78
77171;BME280;66144;50.020;14.422;2023-05-07T05:34:56;99208.13;;;13.42;62.98
77171;BME280;66144;50.020;14.422;2023-05-07T05:37:22;99206.31;;;13.47;61.53
77171;BME280;66144;50.020;14.422;2023-05-07T05:39:47;99213.66;;;13.45;61.10
77171;BME280;66144;50.020;14.422;2023-05-07T05:42:13;99212.50;;;13.31;61.83
77171;BME280;66144;50.020;14.422;2023-05-07T05:44:38;99216.53;;;13.44;61.60
77171;BME280;66144;50.020;14.422;2023-05-07T05:47:03;99214.72;;;13.44;61.13
77171;BME280;66144;50.020;14.422;2023-05-07T05:49:29;99210.50;;;13.43;61.50
77171;BME280;66144;50.020;14.422;2023-05-07T05:51:55;99214.47;;;13.46;61.22
77171;BME280;66144;50.020;14.422;2023-05-07T05:54:21;99213.38;;;13.47;62.55
77171;BME280;66144;50.020;14.422;2023-05-07T05:56:46;99212.88;;;13.50;60.20
77171;BME280;66144;50.020;14.422;2023-05-07T05:59:12;99215.50;;;13.50;61.19
77171;BME280;66144;50.020;14.422;2023-05-07T06:01:37;99214.75;;;13.55;61.55
77171;BME280;66144;50.020;14.422;2023-05-07T06:04:03;99220.59;;;13.62;60.81
77171;BME280;66144;50.020;14.422;2023-05-07T06:06:29;99219.56;;;13.73;60.09
77171;BME280;66144;50.020;14.422;2023-05-07T06:08:54;99220.88;;;13.70;58.83
77171;BME280;66144;50.020;14.422;2023-05-07T06:11:20;99215.16;;;13.78;59.04
77171;BME280;66144;50.020;14.422;2023-05-07T06:13:45;99223.56;;;13.80;59.02
77171;BME280;66144;50.020;14.422;2023-05-07T06:16:10;99229.34;;;13.88;59.26
77171;BME280;66144;50.020;14.422;2023-05-07T06:18:36;99231.97;;;13.82;59.47
77171;BME280;66144;50.020;14.422;2023-05-07T06:21:01;99240.13;;;13.86;60.53
77171;BME280;66144;50.020;14.422;2023-05-07T06:23:27;99230.44;;;13.92;60.10
77171;BME280;66144;50.020;14.422;2023-05-07T06:25:52;99234.06;;;13.80;59.58
77171;BME280;66144;50.020;14.422;2023-05-07T06:28:18;99241.88;;;13.65;58.92
77171;BME280;66144;50.020;14.422;2023-05-07T06:30:43;99249.25;;;13.73;58.87
77171;BME280;66144;50.020;14.422;2023-05-07T06:33:09;99258.44;;;13.76;59.15
77171;BME280;66144;50.020;14.422;2023-05-07T06:35:34;99256.06;;;13.74;59.87
77171;BME280;66144;50.020;14.422;2023-05-07T06:38:00;99249.25;;;13.73;59.52
77171;BME280;66144;50.020;14.422;2023-05-07T06:40:26;99256.34;;;13.73;59.25
77171;BME280;66144;50.020;14.422;2023-05-07T06:42:51;99256.63;;;13.76;59.70
77171;BME280;66144;50.020;14.422;2023-05-07T06:45:16;99269.53;;;13.83;59.31
77171;BME280;66144;50.020;14.422;2023-05-07T06:47:42;99266.38;;;13.81;59.33
77171;BME280;66144;50.020;14.422;2023-05-07T06:50:07;99258.22;;;13.82;59.70
77171;BME280;66144;50.020;14.422;2023-05-07T06:52:34;99265.59;;;13.86;59.68
77171;BME280;66144;50.020;14.422;2023-05-07T06:55:00;99266.91;;;13.88;58.73
77171;BME280;66144;50.020;14.422;2023-05-07T06:57:26;99270.84;;;13.86;59.11
77171;BME280;66144;50.020;14.422;2023-05-07T06:59:51;99266.94;;;13.93;58.94
77171;BME280;66144;50.020;14.422;2023-05-07T07:02:16;99266.38;;;13.86;58.94
77171;BME280;66144;50.020;14.422;2023-05-07T07:04:42;99276.13;;;13.91;58.69
77171;BME280;66144;50.020;14.422;2023-05-07T07:07:07;99272.69;;;13.90;58.87
77171;BME280;66144;50.020;14.422;2023-05-07T07:09:33;99273.44;;;13.80;58.31
77171;BME280;66144;50.020;14.422;2023-05-07T07:11:58;99274.53;;;13.85;59.16
77171;BME280;66144;50.020;14.422;2023-05-07T07:14:24;99277.16;;;13.90;59.45
77171;BME280;66144;50.020;14.422;2023-05-07T07:16:49;99276.88;;;13.86;59.75
77171;BME280;66144;50.020;14.422;2023-05-07T07:19:15;99288.44;;;13.85;59.75
77171;BME280;66144;50.020;14.422;2023-05-07T07:21:41;99284.25;;;13.47;59.87
77171;BME280;66144;50.020;14.422;2023-05-07T07:24:06;99282.28;;;13.64;60.30
77171;BME280;66144;50.020;14.422;2023-05-07T07:26:32;99284.41;;;13.72;60.55
77171;BME280;66144;50.020;14.422;2023-05-07T07:28:57;99290.25;;;13.79;60.11
77171;BME280;66144;50.020;14.422;2023-05-07T07:31:22;99280.94;;;13.62;59.40
77171;BME280;66144;50.020;14.422;2023-05-07T07:33:48;99288.88;;;13.72;59.23
77171;BME280;66144;50.020;14.422;2023-05-07T07:36:15;99292.63;;;13.86;59.66
77171;BME280;66144;50.020;14.422;2023-05-07T07:38:41;99290.03;;;13.49;59.63
77171;BME280;66144;50.020;14.422;2023-05-07T07:41:08;99289.03;;;13.55;59.53
77171;BME280;66144;50.020;14.422;2023-05-07T07:43:33;99295.41;;;13.69;60.04
77171;BME280;66144;50.020;14.422;2023-05-07T07:45:59;99293.81;;;13.63;59.79
77171;BME280;66144;50.020;14.422;2023-05-07T07:48:24;99291.53;;;13.77;60.10
77171;BME280;66144;50.020;14.422;2023-05-07T07:50:50;99292.88;;;13.79;59.15
77171;BME280;66144;50.020;14.422;2023-05-07T07:53:18;99300.25;;;13.88;59.88
77171;BME280;66144;50.020;14.422;2023-05-07T07:55:44;99295.59;;;13.95;59.49
77171;BME280;66144;50.020;14.422;2023-05-07T07:58:10;99303.47;;;13.95;59.31
77171;BME280;66144;50.020;14.422;2023-05-07T08:00:35;99312.72;;;14.07;59.59
77171;BME280;66144;50.020;14.422;2023-05-07T08:03:01;99308.50;;;14.01;59.84
77171;BME280;66144;50.020;14.422;2023-05-07T08:05:28;99310.38;;;14.11;59.71
77171;BME280;66144;50.020;14.422;2023-05-07T08:07:53;99318.75;;;14.08;58.82
77171;BME280;66144;50.020;14.422;2023-05-07T08:10:19;99315.63;;;14.11;57.99
77171;BME280;66144;50.020;14.422;2023-05-07T08:12:48;99312.44;;;14.04;57.52
77171;BME280;66144;50.020;14.422;2023-05-07T08:15:14;99318.75;;;14.08;58.22
77171;BME280;66144;50.020;14.422;2023-05-07T08:17:40;99311.97;;;14.17;58.14
77171;BME280;66144;50.020;14.422;2023-05-07T08:20:06;99310.69;;;14.20;58.47
77171;BME280;66144;50.020;14.422;2023-05-07T08:22:31;99313.06;;;14.21;61.01
77171;BME280;66144;50.020;14.422;2023-05-07T08:24:57;99312.00;;;14.22;57.78
77171;BME280;66144;50.020;14.422;2023-05-07T08:27:22;99315.69;;;14.26;58.07
77171;BME280;66144;50.020;14.422;2023-05-07T08:29:48;99323.47;;;14.06;57.85
77171;BME280;66144;50.020;14.422;2023-05-07T08:32:14;99319.25;;;14.05;56.87
77171;BME280;66144;50.020;14.422;2023-05-07T08:34:39;99325.09;;;14.12;57.99
77171;BME280;66144;50.020;14.422;2023-05-07T08:37:05;99329.31;;;14.18;57.08
77171;BME280;66144;50.020;14.422;2023-05-07T08:39:30;99327.78;;;14.27;57.95
77171;BME280;66144;50.020;14.422;2023-05-07T08:41:56;99333.28;;;14.21;57.47
77171;BME280;66144;50.020;14.422;2023-05-07T08:44:26;99337.50;;;14.27;58.16
77171;BME280;66144;50.020;14.422;2023-05-07T08:46:53;99336.16;;;14.19;58.42
77171;BME280;66144;50.020;14.422;2023-05-07T08:49:21;99328.06;;;14.31;58.13
77171;BME280;66144;50.020;14.422;2023-05-07T08:51:46;99337.31;;;14.38;58.79
77171;BME280;66144;50.020;14.422;2023-05-07T08:54:15;99333.16;;;14.42;57.00
77171;BME280;66144;50.020;14.422;2023-05-07T08:56:41;99340.28;;;14.52;57.40
77171;BME280;66144;50.020;14.422;2023-05-07T08:59:07;99333.66;;;14.44;57.00
77171;BME280;66144;50.020;14.422;2023-05-07T09:01:32;99342.66;;;14.54;57.80
77171;BME280;66144;50.020;14.422;2023-05-07T09:04:00;99345.81;;;14.56;55.99
77171;BME280;66144;50.020;14.422;2023-05-07T09:06:26;99342.66;;;14.54;56.40
77171;BME280;66144;50.020;14.422;2023-05-07T09:08:53;99346.31;;;14.52;56.71
77171;BME280;66144;50.020;14.422;2023-05-07T09:11:22;99344.75;;;14.51;57.13
77171;BME280;66144;50.020;14.422;2023-05-07T09:13:48;99339.50;;;14.57;56.88
77171;BME280;66144;50.020;14.422;2023-05-07T09:16:15;99341.97;;;14.89;57.90
77171;BME280;66144;50.020;14.422;2023-05-07T09:18:41;99340.13;;;14.79;55.72
77171;BME280;66144;50.020;14.422;2023-05-07T09:21:09;99337.56;;;15.19;56.09
77171;BME280;66144;50.020;14.422;2023-05-07T09:23:35;99338.88;;;15.37;55.12
77171;BME280;66144;50.020;14.422;2023-05-07T09:26:00;99340.44;;;15.43;54.69
77171;BME280;66144;50.020;14.422;2023-05-07T09:28:27;99341.28;;;15.64;53.55
77171;BME280;66144;50.020;14.422;2023-05-07T09:30:52;99342.84;;;15.75;55.04
77171;BME280;66144;50.020;14.422;2023-05-07T09:33:17;99345.22;;;15.77;54.49
77171;BME280;66144;50.020;14.422;2023-05-07T09:35:43;99353.13;;;15.72;54.07
77171;BME280;66144;50.020;14.422;2023-05-07T09:38:08;99346.00;;;15.72;53.68
77171;BME280;66144;50.020;14.422;2023-05-07T09:40:33;99344.97;;;15.73;55.71
77171;BME280;66144;50.020;14.422;2023-05-07T09:43:17;99341.28;;;15.74;54.09
77171;BME280;66144;50.020;14.422;2023-05-07T09:45:42;99347.63;;;15.58;53.71
77171;BME280;66144;50.020;14.422;2023-05-07T09:48:08;99345.22;;;15.36;54.67
77171;BME280;66144;50.020;14.422;2023-05-07T09:50:46;99349.66;;;15.26;54.66
77171;BME280;66144;50.020;14.422;2023-05-07T09:53:14;99350.72;;;15.30;54.21
77171;BME280;66144;50.020;14.422;2023-05-07T09:55:40;99348.06;;;15.25;54.21
77171;BME280;66144;50.020;14.422;2023-05-07T09:58:06;99343.88;;;15.34;54.96
77171;BME280;66144;50.020;14.422;2023-05-07T10:00:32;99337.03;;;15.33;54.34
77171;BME280;66144;50.020;14.422;2023-05-07T10:02:58;99351.78;;;15.34;55.06
77171;BME280;66144;50.020;14.422;2023-05-07T10:05:25;99349.16;;;15.39;55.83
77171;BME280;66144;50.020;14.422;2023-05-07T10:07:52;99341.25;;;15.44;55.11
77171;BME280;66144;50.020;14.422;2023-05-07T10:10:18;99347.56;;;15.43;55.56
77171;BME280;66144;50.020;14.422;2023-05-07T10:12:44;99347.56;;;15.33;54.69
77171;BME280;66144;50.020;14.422;2023-05-07T10:15:11;99345.44;;;15.30;54.97
77171;BME280;66144;50.020;14.422;2023-05-07T10:17:40;99352.31;;;15.31;54.62
77171;BME280;66144;50.020;14.422;2023-05-07T10:20:06;99346.25;;;15.30;54.87
77171;BME280;66144;50.020;14.422;2023-05-07T10:22:39;99350.47;;;15.31;54.80
77171;BME280;66144;50.020;14.422;2023-05-07T10:25:14;99356.22;;;15.23;54.58
77171;BME280;66144;50.020;14.422;2023-05-07T10:27:43;99347.03;;;15.31;54.81
77171;BME280;66144;50.020;14.422;2023-05-07T10:32:49;99338.84;;;15.22;55.97
77171;BME280;66144;50.020;14.422;2023-05-07T10:35:23;99343.34;;;15.32;55.43
77171;BME280;66144;50.020;14.422;2023-05-07T10:37:49;99332.56;;;15.18;55.17
77171;BME280;66144;50.020;14.422;2023-05-07T10:40:15;99338.88;;;15.32;54.90
77171;BME280;66144;50.020;14.422;2023-05-07T10:43:01;99327.28;;;15.48;54.74
77171;BME280;66144;50.020;14.422;2023-05-07T10:45:28;99328.06;;;15.79;54.92
77171;BME280;66144;50.020;14.422;2023-05-07T10:48:05;99321.97;;;16.09;53.42
77171;BME280;66144;50.020;14.422;2023-05-07T10:50:31;99329.88;;;16.14;52.03
77171;BME280;66144;50.020;14.422;2023-05-07T10:55:40;99328.69;;;16.46;51.18
77171;BME280;66144;50.020;14.422;2023-05-07T11:00:49;99318.75;;;16.87;51.20
77171;BME280;66144;50.020;14.422;2023-05-07T11:03:15;99315.38;;;16.76;51.34
77171;BME280;66144;50.020;14.422;2023-05-07T11:05:41;99327.72;;;16.91;50.80
77171;BME280;66144;50.020;14.422;2023-05-07T11:08:08;99327.91;;;17.00;50.44
77171;BME280;66144;50.020;14.422;2023-05-07T11:10:56;99324.50;;;16.94;50.77
77171;BME280;66144;50.020;14.422;2023-05-07T11:13:40;99328.63;;;17.10;50.00
77171;BME280;66144;50.020;14.422;2023-05-07T11:16:25;99326.81;;;17.06;50.03
77171;BME280;66144;50.020;14.422;2023-05-07T11:18:54;99328.44;;;16.97;50.49
77171;BME280;66144;50.020;14.422;2023-05-07T11:21:46;99333.41;;;17.08;50.76
77171;BME280;66144;50.020;14.422;2023-05-07T11:24:12;99331.94;;;16.87;50.56
77171;BME280;66144;50.020;14.422;2023-05-07T11:26:46;99334.59;;;16.82;51.25
77171;BME280;66144;50.020;14.422;2023-05-07T11:29:16;99341.47;;;16.83;51.77
77171;BME280;66144;50.020;14.422;2023-05-07T11:31:42;99339.31;;;16.90;51.24
77171;BME280;66144;50.020;14.422;2023-05-07T11:34:08;99335.09;;;16.89;50.93
77171;BME280;66144;50.020;14.422;2023-05-07T11:36:35;99329.22;;;16.97;52.02
77171;BME280;66144;50.020;14.422;2023-05-07T11:39:01;99332.63;;;17.03;50.58
77171;BME280;66144;50.020;14.422;2023-05-07T11:41:36;99332.25;;;17.19;50.30
77171;BME280;66144;50.020;14.422;2023-05-07T11:44:02;99334.47;;;17.02;50.84
77171;BME280;66144;50.020;14.422;2023-05-07T11:46:28;99328.84;;;17.14;51.09
77171;BME280;66144;50.020;14.422;2023-05-07T11:48:54;99325.50;;;17.03;50.66
77171;BME280;66144;50.020;14.422;2023-05-07T11:51:24;99332.56;;;16.69;52.36
77171;BME280;66144;50.020;14.422;2023-05-07T11:53:51;99328.25;;;16.88;52.96
77171;BME280;66144;50.020;14.422;2023-05-07T11:56:18;99333.03;;;16.76;53.43
77171;BME280;66144;50.020;14.422;2023-05-07T11:58:45;99333.56;;;16.78;54.16
77171;BME280;66144;50.020;14.422;2023-05-07T12:01:12;99345.91;;;16.28;54.76
77171;BME280;66144;50.020;14.422;2023-05-07T12:03:40;99340.38;;;16.19;54.92
77171;BME280;66144;50.020;14.422;2023-05-07T12:06:08;99328.44;;;16.37;55.19
77171;BME280;66144;50.020;14.422;2023-05-07T12:08:36;99332.16;;;16.36;54.50
77171;BME280;66144;50.020;14.422;2023-05-07T12:11:03;99327.13;;;16.45;54.19
77171;BME280;66144;50.020;14.422;2023-05-07T12:13:28;99335.47;;;16.57;54.35
77171;BME280;66144;50.020;14.422;2023-05-07T12:15:55;99337.34;;;16.67;53.62
77171;BME280;66144;50.020;14.422;2023-05-07T12:18:22;99332.06;;;16.56;53.42
77171;BME280;66144;50.020;14.422;2023-05-07T12:20:48;99342.66;;;16.51;53.93
77171;BME280;66144;50.020;14.422;2023-05-07T12:23:14;99344.25;;;16.42;53.02
77171;BME280;66144;50.020;14.422;2023-05-07T12:25:41;99342.06;;;16.70;53.04
77171;BME280;66144;50.020;14.422;2023-05-07T12:28:13;99336.28;;;16.68;52.52
77171;BME280;66144;50.020;14.422;2023-05-07T12:30:42;99337.34;;;16.56;52.50
77171;BME280;66144;50.020;14.422;2023-05-07T12:33:08;99349.78;;;16.46;53.19
77171;BME280;66144;50.020;14.422;2023-05-07T12:35:39;99346.81;;;16.63;53.24
77171;BME280;66144;50.020;14.422;2023-05-07T12:38:17;99354.34;;;16.25;53.03
77171;BME280;66144;50.020;14.422;2023-05-07T12:43:18;99347.22;;;16.31;53.03
77171;BME280;66144;50.020;14.422;2023-05-07T12:45:45;99344.75;;;16.49;52.81
77171;BME280;66144;50.020;14.422;2023-05-07T12:48:12;99345.75;;;16.69;53.37
77171;BME280;66144;50.020;14.422;2023-05-07T12:50:37;99356.31;;;16.74;52.14
77171;BME280;66144;50.020;14.422;2023-05-07T12:53:04;99348.06;;;16.80;51.89
77171;BME280;66144;50.020;14.422;2023-05-07T12:55:46;99349.09;;;16.89;50.87
77171;BME280;66144;50.020;14.422;2023-05-07T12:58:20;99345.31;;;17.01;51.12